Time;durP1;ratioP1;P1;durP2;ratioP2;P2;SDS_P1;SDS_P2;PMS_P1;PMS_P2;Temp;Humidity;BMP_temperature;BMP_pressure;BME280_temperature;BME280_humidity;BME280_pressure;Samples;Min_cycle;Max_cycle;Signal;HPM_P1;HPM_P2
2023/11/16 00:00:32;;;;;;;9.43;3.90;;;5.40;99.90;;;;;;5064474;28;20457;-58
2023/11/16 00:02:59;;;;;;;13.50;4.23;;;5.40;99.90;;;;;;5064408;28;20427;-59
2023/11/16 00:05:25;;;;;;;10.70;4.30;;;5.40;99.90;;;;;;5062487;28;20491;-59
2023/11/16 00:07:53;;;;;;;10.13;3.57;;;5.40;99.90;;;;;;5064503;28;20457;-59
2023/11/16 00:10:19;;;;;;;11.33;4.23;;;5.30;99.90;;;;;;5067701;28;20556;-58
2023/11/16 00:12:45;;;;;;;7.70;4.23;;;5.30;99.90;;;;;;5061422;28;20438;-58
2023/11/16 00:15:11;;;;;;;14.40;3.70;;;5.30;99.90;;;;;;5068299;28;20199;-58
2023/11/16 00:17:37;;;;;;;6.23;3.53;;;5.30;99.90;;;;;;5064017;28;20213;-58
2023/11/16 00:20:07;;;;;;;6.80;3.33;;;5.30;99.90;;;;;;5064556;28;20791;-57
2023/11/16 00:22:33;;;;;;;12.20;3.07;;;5.30;99.90;;;;;;5067776;28;20270;-58
2023/11/16 00:24:59;;;;;;;7.10;3.10;;;5.30;99.90;;;;;;5064019;28;20464;-58
2023/11/16 00:27:26;;;;;;;8.17;3.40;;;5.30;99.90;;;;;;5063546;28;20444;-58
2023/11/16 00:29:52;;;;;;;9.00;3.10;;;5.30;99.90;;;;;;5066854;28;20412;-57
2023/11/16 00:32:18;;;;;;;7.63;2.70;;;5.30;99.90;;;;;;5060463;28;20465;-58
2023/11/16 00:34:44;;;;;;;10.70;3.40;;;5.30;99.90;;;;;;5066745;28;20445;-57
2023/11/16 00:37:10;;;;;;;10.83;3.33;;;5.30;99.90;;;;;;5058341;28;20210;-58
2023/11/16 00:39:38;;;;;;;4.80;2.90;;;5.30;99.90;;;;;;5067645;28;21026;-58
2023/11/16 00:42:05;;;;;;;7.13;2.80;;;5.40;99.90;;;;;;5060449;28;20412;-57
2023/11/16 00:44:30;;;;;;;11.00;2.90;;;5.40;99.90;;;;;;5065487;28;20414;-59
2023/11/16 00:46:57;;;;;;;4.53;2.60;;;5.40;99.90;;;;;;5064598;28;20524;-59
2023/11/16 00:49:23;;;;;;;4.70;2.87;;;5.40;99.90;;;;;;5063359;28;20666;-58
2023/11/16 00:51:51;;;;;;;6.97;2.57;;;5.40;99.90;;;;;;5059877;28;20419;-58
2023/11/16 00:54:17;;;;;;;6.60;2.43;;;5.50;99.90;;;;;;5066254;28;20923;-58
2023/11/16 00:56:44;;;;;;;10.57;3.57;;;5.50;99.90;;;;;;5064052;28;20435;-56
2023/11/16 00:59:10;;;;;;;7.60;3.00;;;5.50;99.90;;;;;;5061676;28;20253;-59
2023/11/16 01:01:37;;;;;;;7.27;2.97;;;5.50;99.90;;;;;;5067552;28;20531;-58
2023/11/16 01:04:04;;;;;;;4.77;2.80;;;5.50;99.90;;;;;;5061093;28;20453;-58
2023/11/16 01:06:31;;;;;;;5.03;3.00;;;5.50;99.90;;;;;;5063161;28;20468;-60
2023/11/16 01:08:57;;;;;;;5.57;2.70;;;5.50;99.90;;;;;;5066290;28;21146;-58
2023/11/16 01:11:29;;;;;;;5.93;3.10;;;5.50;99.90;;;;;;5067110;28;20954;-58
2023/11/16 01:13:56;;;;;;;7.47;3.00;;;5.50;99.90;;;;;;5064903;28;20821;-59
2023/11/16 01:16:25;;;;;;;5.00;2.90;;;5.50;99.90;;;;;;5067225;28;20451;-58
2023/11/16 01:18:55;;;;;;;5.47;2.80;;;5.50;99.90;;;;;;5065673;28;20449;-58
2023/11/16 01:21:20;;;;;;;5.40;2.67;;;5.50;99.90;;;;;;5063051;28;20444;-59
2023/11/16 01:23:47;;;;;;;6.47;3.10;;;5.50;99.90;;;;;;5060802;28;20444;-58
2023/11/16 01:26:17;;;;;;;13.73;3.57;;;5.50;99.90;;;;;;5063006;28;20206;-58
2023/11/16 01:28:49;;;;;;;3.40;2.33;;;5.50;99.90;;;;;;5060440;28;20447;-57
2023/11/16 01:31:21;;;;;;;4.30;2.70;;;5.50;99.90;;;;;;5062167;28;20452;-59
2023/11/16 01:33:47;;;;;;;5.10;2.93;;;5.50;99.90;;;;;;5061540;28;20435;-58
2023/11/16 01:36:13;;;;;;;8.60;2.40;;;5.50;99.90;;;;;;5064647;28;20420;-59
2023/11/16 01:38:40;;;;;;;13.50;3.23;;;5.50;99.90;;;;;;5065960;28;20251;-58
2023/11/16 01:41:06;;;;;;;12.73;3.47;;;5.50;99.90;;;;;;5066688;28;20511;-59
2023/11/16 01:43:33;;;;;;;6.50;3.07;;;5.50;99.90;;;;;;5062829;28;20436;-58
2023/11/16 01:46:00;;;;;;;12.60;3.60;;;5.50;99.90;;;;;;5060139;28;20517;-58
2023/11/16 01:48:26;;;;;;;5.30;3.00;;;5.50;99.90;;;;;;5065960;28;22285;-59
2023/11/16 01:50:53;;;;;;;6.13;3.37;;;5.50;99.90;;;;;;5059456;28;20413;-58
2023/11/16 01:53:22;;;;;;;5.17;3.20;;;5.50;99.90;;;;;;5060031;28;20417;-58
2023/11/16 01:55:48;;;;;;;7.17;2.83;;;5.50;99.90;;;;;;5060621;28;20440;-60
2023/11/16 01:58:14;;;;;;;12.97;3.00;;;5.50;99.90;;;;;;5066073;28;20449;-60
2023/11/16 02:00:43;;;;;;;6.43;3.27;;;5.50;99.90;;;;;;5065011;28;20432;-59
2023/11/16 02:03:10;;;;;;;6.60;3.30;;;5.50;99.90;;;;;;5066000;28;20935;-58
2023/11/16 02:05:37;;;;;;;5.87;2.80;;;5.40;99.90;;;;;;5059852;28;20460;-58
2023/11/16 02:08:10;;;;;;;9.43;3.47;;;5.40;99.90;;;;;;5064787;28;20437;-58
2023/11/16 02:10:38;;;;;;;6.93;2.90;;;5.40;99.90;;;;;;5059786;28;20432;-58
2023/11/16 02:13:13;;;;;;;8.53;2.80;;;5.40;99.90;;;;;;5063268;28;20421;-58
2023/11/16 02:15:39;;;;;;;8.20;3.67;;;5.40;99.90;;;;;;5060873;28;20947;-59
2023/11/16 02:18:05;;;;;;;9.37;3.30;;;5.40;99.90;;;;;;5064349;28;20470;-58
2023/11/16 02:20:31;;;;;;;7.20;3.03;;;5.30;99.90;;;;;;5062529;28;20440;-58
2023/11/16 02:23:02;;;;;;;5.47;2.97;;;5.30;99.90;;;;;;5066635;28;20182;-61
2023/11/16 02:25:29;;;;;;;6.97;2.80;;;5.20;99.90;;;;;;5062396;28;20218;-58
2023/11/16 02:27:55;;;;;;;11.93;3.30;;;5.20;99.90;;;;;;5061424;28;20954;-58
2023/11/16 02:30:20;;;;;;;7.40;2.80;;;5.20;99.90;;;;;;5059469;28;20419;-58
2023/11/16 02:32:46;;;;;;;8.33;2.97;;;5.20;99.90;;;;;;5062131;28;20653;-57
2023/11/16 02:35:14;;;;;;;3.57;2.83;;;5.20;99.90;;;;;;5064881;28;20182;-57
2023/11/16 02:37:40;;;;;;;6.20;3.03;;;5.10;99.90;;;;;;5062729;28;20206;-59
2023/11/16 02:40:07;;;;;;;8.43;2.90;;;5.10;99.90;;;;;;5060102;28;21111;-57
2023/11/16 02:42:34;;;;;;;6.93;2.80;;;5.10;99.90;;;;;;5058720;28;20262;-58
2023/11/16 02:45:00;;;;;;;4.27;2.70;;;5.20;99.90;;;;;;5063475;28;20506;-59
2023/11/16 02:47:26;;;;;;;16.30;3.27;;;5.20;99.90;;;;;;5058168;28;21086;-60
2023/11/16 02:49:52;;;;;;;8.53;3.90;;;5.20;99.90;;;;;;5057583;28;20428;-59
2023/11/16 02:52:18;;;;;;;10.13;3.50;;;5.20;99.90;;;;;;5061790;28;20491;-59
2023/11/16 02:54:44;;;;;;;12.53;3.93;;;5.10;99.90;;;;;;5058958;28;20939;-57
2023/11/16 02:57:09;;;;;;;13.50;4.07;;;5.10;99.90;;;;;;5064797;28;20191;-58
2023/11/16 02:59:35;;;;;;;10.83;4.47;;;5.10;99.90;;;;;;5060524;28;20189;-58
2023/11/16 03:02:07;;;;;;;9.53;4.73;;;5.10;99.90;;;;;;5065302;28;20175;-58
2023/11/16 03:04:33;;;;;;;4.60;3.23;;;5.10;99.90;;;;;;5066640;28;20424;-58
2023/11/16 03:06:59;;;;;;;6.23;3.10;;;5.10;99.90;;;;;;5068043;28;21090;-58
2023/11/16 03:09:24;;;;;;;6.60;3.37;;;5.10;99.90;;;;;;5064961;28;21178;-58
2023/11/16 03:11:50;;;;;;;5.20;3.70;;;5.10;99.90;;;;;;5061693;28;20178;-58
2023/11/16 03:14:15;;;;;;;8.10;3.77;;;5.00;99.90;;;;;;5066664;28;20181;-59
2023/11/16 03:16:51;;;;;;;11.80;3.97;;;5.00;99.90;;;;;;5069981;28;20197;-54
2023/11/16 03:19:17;;;;;;;9.10;4.80;;;5.00;99.90;;;;;;5066755;28;20189;-59
2023/11/16 03:21:43;;;;;;;8.17;4.17;;;5.00;99.90;;;;;;5059324;28;20435;-59
2023/11/16 03:24:12;;;;;;;12.47;4.90;;;5.00;99.90;;;;;;5063607;28;20178;-58
2023/11/16 03:26:38;;;;;;;13.20;4.07;;;5.00;99.90;;;;;;5062541;28;20198;-56
2023/11/16 03:29:04;;;;;;;11.30;4.00;;;5.00;99.90;;;;;;5062942;28;20494;-57
2023/11/16 03:31:35;;;;;;;14.17;5.60;;;5.00;99.90;;;;;;5065030;28;20539;-59
2023/11/16 03:34:01;;;;;;;6.60;3.77;;;5.00;99.90;;;;;;5065564;28;20405;-59
2023/11/16 03:36:27;;;;;;;7.43;3.40;;;5.00;99.90;;;;;;5067139;28;21093;-59
2023/11/16 03:38:52;;;;;;;8.03;4.57;;;5.00;99.90;;;;;;5064252;28;21029;-59
2023/11/16 03:41:18;;;;;;;5.67;3.23;;;5.00;99.90;;;;;;5064783;28;20178;-57
2023/11/16 03:43:43;;;;;;;6.37;3.93;;;5.00;99.90;;;;;;5060498;28;20567;-57
2023/11/16 03:46:09;;;;;;;4.00;3.07;;;5.00;99.90;;;;;;5058392;28;20223;-59
2023/11/16 03:48:34;;;;;;;12.93;3.30;;;5.00;99.90;;;;;;5060814;28;20907;-59
2023/11/16 03:51:02;;;;;;;6.30;3.17;;;5.00;99.90;;;;;;5064946;28;20174;-59
2023/11/16 03:53:29;;;;;;;4.70;3.07;;;5.00;99.90;;;;;;5059264;28;20577;-59
2023/11/16 03:55:54;;;;;;;7.00;2.80;;;5.00;99.90;;;;;;5062286;28;20435;-59
2023/11/16 03:58:20;;;;;;;15.60;4.07;;;5.10;99.90;;;;;;5069816;28;20441;-59
2023/11/16 04:00:45;;;;;;;9.13;3.27;;;5.10;99.90;;;;;;5068446;28;20744;-60
2023/11/16 04:03:11;;;;;;;8.60;3.17;;;5.10;99.90;;;;;;5065437;28;20190;-59
2023/11/16 04:05:37;;;;;;;7.17;3.03;;;5.10;99.90;;;;;;5064850;28;20578;-59
2023/11/16 04:08:05;;;;;;;9.13;3.23;;;5.10;99.90;;;;;;5059999;28;20206;-59
2023/11/16 04:10:30;;;;;;;8.70;3.50;;;5.10;99.90;;;;;;5062447;28;20179;-59
2023/11/16 04:12:56;;;;;;;6.60;3.30;;;5.10;99.90;;;;;;5066232;28;20829;-59
2023/11/16 04:15:22;;;;;;;5.27;3.10;;;5.10;99.90;;;;;;5060427;28;20191;-59
2023/11/16 04:17:48;;;;;;;6.00;3.90;;;5.10;99.90;;;;;;5062619;28;20619;-59
2023/11/16 04:20:15;;;;;;;8.43;4.53;;;5.10;99.90;;;;;;5062124;28;20487;-59
2023/11/16 04:22:40;;;;;;;3.80;3.33;;;5.10;99.90;;;;;;5062057;28;20549;-60
2023/11/16 04:25:17;;;;;;;12.53;3.53;;;5.10;99.90;;;;;;5062017;28;20214;-59
2023/11/16 04:27:42;;;;;;;5.70;3.20;;;5.10;99.90;;;;;;5061600;28;20818;-59
2023/11/16 04:30:11;;;;;;;8.50;3.60;;;5.20;99.90;;;;;;5058170;28;20425;-59
2023/11/16 04:32:37;;;;;;;7.07;3.37;;;5.20;99.90;;;;;;5062386;28;20265;-58
2023/11/16 04:35:03;;;;;;;5.40;3.10;;;5.20;99.90;;;;;;5064911;28;21018;-59
2023/11/16 04:37:28;;;;;;;7.73;3.93;;;5.10;99.90;;;;;;5060806;28;20548;-59
2023/11/16 04:39:54;;;;;;;10.73;3.33;;;5.10;99.90;;;;;;5062079;28;20420;-60
2023/11/16 04:42:19;;;;;;;7.20;3.47;;;5.10;99.90;;;;;;5063119;28;20190;-58
2023/11/16 04:44:45;;;;;;;7.10;4.10;;;5.10;99.90;;;;;;5068034;28;20649;-59
2023/11/16 04:47:11;;;;;;;6.50;3.53;;;5.00;99.90;;;;;;5065195;28;20310;-60
2023/11/16 04:49:37;;;;;;;7.93;4.03;;;5.00;99.90;;;;;;5062088;28;20239;-59
2023/11/16 04:52:03;;;;;;;8.77;3.20;;;5.00;99.90;;;;;;5062881;28;20439;-59
2023/11/16 04:54:29;;;;;;;7.17;3.40;;;4.90;99.90;;;;;;5064301;28;20432;-59
2023/11/16 04:56:54;;;;;;;7.40;3.50;;;4.90;99.90;;;;;;5062598;28;20855;-60
2023/11/16 04:59:20;;;;;;;8.37;3.93;;;4.90;99.90;;;;;;5061360;28;20265;-61
2023/11/16 05:01:46;;;;;;;10.13;3.40;;;4.80;99.90;;;;;;5057076;28;20291;-60
2023/11/16 05:04:12;;;;;;;5.80;3.60;;;4.90;99.90;;;;;;5054220;28;20707;-60
2023/11/16 05:06:41;;;;;;;14.30;4.10;;;4.90;99.90;;;;;;5061778;28;20205;-60
2023/11/16 05:09:07;;;;;;;6.87;3.43;;;4.90;99.90;;;;;;5050489;28;20482;-61
2023/11/16 05:11:32;;;;;;;5.00;2.80;;;4.90;99.90;;;;;;5054427;28;22620;-61
2023/11/16 05:13:58;;;;;;;9.47;3.50;;;4.90;99.90;;;;;;5059899;28;20206;-63
2023/11/16 05:16:26;;;;;;;6.50;3.10;;;4.90;99.90;;;;;;5060727;28;20856;-62
2023/11/16 05:18:53;;;;;;;7.43;3.27;;;5.00;99.90;;;;;;5060038;28;20259;-62
2023/11/16 05:21:18;;;;;;;8.13;3.07;;;5.00;99.90;;;;;;5058855;28;20432;-62
2023/11/16 05:23:44;;;;;;;5.33;2.83;;;5.00;99.90;;;;;;5058884;28;20433;-61
2023/11/16 05:26:10;;;;;;;9.17;3.30;;;5.00;99.90;;;;;;5061767;28;20236;-60
2023/11/16 05:28:36;;;;;;;6.10;3.70;;;5.00;99.90;;;;;;5057792;28;21315;-60
2023/11/16 05:31:04;;;;;;;8.03;3.90;;;5.00;99.90;;;;;;5055601;28;20186;-62
2023/11/16 05:33:32;;;;;;;8.07;3.73;;;5.00;99.90;;;;;;5060991;28;20214;-60
2023/11/16 05:35:59;;;;;;;12.83;5.10;;;5.00;99.90;;;;;;5061646;28;20527;-58
2023/11/16 05:38:25;;;;;;;11.77;4.90;;;5.00;99.90;;;;;;5063241;28;20479;-61
2023/11/16 05:40:53;;;;;;;10.33;5.30;;;5.00;99.90;;;;;;5062939;28;21261;-60
2023/11/16 05:43:19;;;;;;;8.70;4.70;;;5.00;99.90;;;;;;5061263;28;20233;-62
2023/11/16 05:45:45;;;;;;;14.17;3.43;;;5.00;99.90;;;;;;5061936;28;20475;-60
2023/11/16 05:48:11;;;;;;;10.10;3.80;;;4.90;99.90;;;;;;5061309;28;20534;-60
2023/11/16 05:50:37;;;;;;;6.53;3.20;;;4.90;99.90;;;;;;5065218;28;20464;-61
2023/11/16 05:53:03;;;;;;;6.07;3.33;;;4.90;99.90;;;;;;5063327;28;20205;-60
2023/11/16 05:55:33;;;;;;;5.83;4.00;;;4.80;99.90;;;;;;5064086;28;20248;-61
2023/11/16 05:57:58;;;;;;;5.57;3.50;;;4.80;99.90;;;;;;5060897;28;20297;-62
2023/11/16 06:00:24;;;;;;;7.77;3.90;;;4.80;99.90;;;;;;5065315;28;20978;-62
2023/11/16 06:02:50;;;;;;;5.53;3.50;;;4.70;99.90;;;;;;5060629;28;20185;-61
2023/11/16 06:05:15;;;;;;;8.67;3.70;;;4.70;99.90;;;;;;5065499;28;20212;-61
2023/11/16 06:07:41;;;;;;;10.97;4.07;;;4.70;99.90;;;;;;5062654;28;20206;-62
2023/11/16 06:10:10;;;;;;;8.63;3.80;;;4.60;99.90;;;;;;5060893;28;20213;-62
2023/11/16 06:12:37;;;;;;;13.73;3.60;;;4.60;99.90;;;;;;5062438;28;20243;-62
2023/11/16 06:15:03;;;;;;;6.07;4.00;;;4.60;99.90;;;;;;5066957;28;20444;-61
2023/11/16 06:17:28;;;;;;;6.40;3.60;;;4.50;99.90;;;;;;5063115;28;20514;-61
2023/11/16 06:19:54;;;;;;;7.23;3.60;;;4.50;99.90;;;;;;5059968;28;20433;-62
2023/11/16 06:22:20;;;;;;;10.27;3.20;;;4.50;99.90;;;;;;5062784;28;20704;-61
2023/11/16 06:24:46;;;;;;;18.67;4.73;;;4.50;99.90;;;;;;5063356;28;20649;-62
2023/11/16 06:27:11;;;;;;;5.40;3.67;;;4.50;99.90;;;;;;5057553;28;20465;-61
2023/11/16 06:29:37;;;;;;;7.27;4.27;;;4.50;99.90;;;;;;5061011;28;20210;-62
2023/11/16 06:32:05;;;;;;;13.53;4.50;;;4.40;99.90;;;;;;5062767;28;20270;-61
2023/11/16 06:34:31;;;;;;;7.20;3.93;;;4.40;99.90;;;;;;5066936;28;20189;-61
2023/11/16 06:36:58;;;;;;;8.33;4.97;;;4.40;99.90;;;;;;5065049;28;20427;-62
2023/11/16 06:39:24;;;;;;;11.37;3.80;;;4.40;99.90;;;;;;5068022;28;20440;-62
2023/11/16 06:41:49;;;;;;;11.00;3.93;;;4.40;99.90;;;;;;5069055;28;20439;-62
2023/11/16 06:44:18;;;;;;;7.30;3.10;;;4.30;99.90;;;;;;5067499;28;20499;-62
2023/11/16 06:46:45;;;;;;;7.63;4.07;;;4.30;99.90;;;;;;5066522;28;20213;-63
2023/11/16 06:49:11;;;;;;;14.67;4.23;;;4.30;99.90;;;;;;5069097;28;20447;-63
2023/11/16 06:51:36;;;;;;;10.80;3.90;;;4.30;99.90;;;;;;5067396;28;20920;-62
2023/11/16 06:54:05;;;;;;;11.03;4.73;;;4.40;99.90;;;;;;5064758;28;20236;-61
2023/11/16 06:56:33;;;;;;;13.73;4.70;;;4.40;99.90;;;;;;5063809;28;20649;-63
2023/11/16 06:59:03;;;;;;;13.40;5.43;;;4.40;99.90;;;;;;5060270;28;20464;-62
2023/11/16 07:01:32;;;;;;;25.67;7.80;;;4.40;99.90;;;;;;5068713;28;20444;-62
2023/11/16 07:03:57;;;;;;;16.50;6.17;;;4.40;99.90;;;;;;5067888;28;20432;-62
2023/11/16 07:06:23;;;;;;;13.20;6.10;;;4.50;99.90;;;;;;5059532;28;20465;-61
2023/11/16 07:08:50;;;;;;;28.20;7.67;;;4.50;99.90;;;;;;5064078;28;20221;-61
2023/11/16 07:11:15;;;;;;;13.77;6.90;;;4.60;99.90;;;;;;5066099;28;20269;-62
2023/11/16 07:13:41;;;;;;;22.93;7.37;;;4.60;99.90;;;;;;5065462;28;21031;-62
2023/11/16 07:16:08;;;;;;;12.37;6.60;;;4.60;99.90;;;;;;5065994;28;20194;-64
2023/11/16 07:18:34;;;;;;;19.77;6.80;;;4.60;99.90;;;;;;5065888;28;20571;-61
2023/11/16 07:21:04;;;;;;;20.30;6.40;;;4.70;99.90;;;;;;5066804;28;20427;-62
2023/11/16 07:23:30;;;;;;;18.60;7.20;;;4.70;99.90;;;;;;5067420;28;20433;-62
2023/11/16 07:25:57;;;;;;;13.67;6.30;;;4.70;99.90;;;;;;5063079;28;20465;-62
2023/11/16 07:28:25;;;;;;;14.10;7.03;;;4.70;99.90;;;;;;5065122;28;20195;-62
2023/11/16 07:30:52;;;;;;;13.70;6.60;;;4.70;99.90;;;;;;5059403;28;20519;-61
2023/11/16 07:33:18;;;;;;;12.20;6.47;;;4.70;99.90;;;;;;5064786;28;20853;-62
2023/11/16 07:35:45;;;;;;;19.53;8.70;;;4.80;99.90;;;;;;5065306;28;20440;-62
2023/11/16 07:38:12;;;;;;;23.13;8.70;;;4.80;99.90;;;;;;5062505;28;20986;-62
2023/11/16 07:40:38;;;;;;;22.90;10.30;;;4.80;99.90;;;;;;5062266;28;20501;-62
2023/11/16 07:43:03;;;;;;;20.83;8.33;;;4.80;99.90;;;;;;5066087;28;20452;-62
2023/11/16 07:45:29;;;;;;;20.07;9.20;;;4.80;99.90;;;;;;5067260;28;20213;-62
2023/11/16 07:47:59;;;;;;;17.67;8.90;;;4.80;99.90;;;;;;5067699;28;20190;-62
2023/11/16 07:50:26;;;;;;;28.97;13.13;;;4.90;99.90;;;;;;5062534;28;20516;-62
2023/11/16 07:52:53;;;;;;;32.03;12.30;;;4.90;99.90;;;;;;5066050;28;20539;-62
2023/11/16 07:55:21;;;;;;;63.57;15.83;;;4.90;99.90;;;;;;5069221;28;20448;-62
2023/11/16 07:57:49;;;;;;;36.60;15.00;;;4.90;99.90;;;;;;5063853;28;20452;-61
2023/11/16 08:00:26;;;;;;;28.80;13.67;;;4.90;99.90;;;;;;5060752;28;20437;-62
2023/11/16 08:05:39;;;;;;;37.63;14.37;;;5.00;99.90;;;;;;5062180;28;20464;-61
2023/11/16 08:08:07;;;;;;;37.00;13.63;;;5.00;99.90;;;;;;5059307;28;20524;-61
2023/11/16 08:10:34;;;;;;;27.47;11.97;;;5.00;99.90;;;;;;5064430;28;20417;-61
2023/11/16 08:13:00;;;;;;;36.90;14.70;;;5.10;99.90;;;;;;5067206;28;20771;-62
2023/11/16 08:15:26;;;;;;;45.77;16.03;;;5.10;99.90;;;;;;5061913;28;20439;-62
2023/11/16 08:17:53;;;;;;;47.77;17.97;;;5.10;99.90;;;;;;5061608;28;20538;-62
2023/11/16 08:20:23;;;;;;;64.33;13.80;;;5.10;99.90;;;;;;5066501;28;20431;-61
2023/11/16 08:22:52;;;;;;;32.77;13.23;;;5.10;99.90;;;;;;5065017;28;20416;-61
2023/11/16 08:25:21;;;;;;;51.73;16.00;;;5.10;99.90;;;;;;5063613;28;20536;-61
2023/11/16 08:27:48;;;;;;;42.73;16.00;;;5.10;99.90;;;;;;5063349;28;20440;-61
2023/11/16 08:30:15;;;;;;;45.90;14.30;;;5.10;99.90;;;;;;5063658;28;21097;-61
2023/11/16 08:32:41;;;;;;;57.70;16.30;;;5.10;99.90;;;;;;5065379;28;20923;-61
2023/11/16 08:35:07;;;;;;;121.87;16.40;;;5.10;99.90;;;;;;5065440;28;20570;-61
2023/11/16 08:37:32;;;;;;;45.60;13.40;;;5.10;99.90;;;;;;5061315;28;20198;-61
2023/11/16 08:39:58;;;;;;;38.70;12.47;;;5.10;99.90;;;;;;5063602;28;20181;-61
2023/11/16 08:42:25;;;;;;;35.40;13.13;;;5.00;99.90;;;;;;5064488;28;20571;-61
2023/11/16 08:44:51;;;;;;;35.07;13.77;;;5.10;99.90;;;;;;5060239;28;20818;-61
2023/11/16 08:47:18;;;;;;;41.70;13.60;;;5.10;99.90;;;;;;5065483;28;20465;-63
2023/11/16 08:49:47;;;;;;;44.90;15.00;;;5.10;99.90;;;;;;5062090;28;20428;-62
2023/11/16 08:52:14;;;;;;;32.80;13.03;;;5.10;99.90;;;;;;5065489;28;20445;-61
2023/11/16 08:54:42;;;;;;;23.17;11.37;;;5.10;99.90;;;;;;5062423;28;20425;-62
2023/11/16 08:57:08;;;;;;;29.33;12.50;;;5.10;99.90;;;;;;5059034;28;20433;-63
2023/11/16 08:59:35;;;;;;;26.43;11.87;;;5.10;99.90;;;;;;5059154;28;20437;-61
2023/11/16 09:02:02;;;;;;;24.30;10.53;;;5.10;99.90;;;;;;5059739;28;21033;-60
2023/11/16 09:04:28;;;;;;;33.63;12.40;;;5.10;99.90;;;;;;5052119;28;20431;-62
2023/11/16 09:06:54;;;;;;;26.13;11.10;;;5.20;99.90;;;;;;5056008;28;20826;-62
2023/11/16 09:09:38;;;;;;;23.73;12.10;;;5.10;99.90;;;;;;5063632;28;20432;-61
2023/11/16 09:12:12;;;;;;;24.73;10.97;;;5.10;99.90;;;;;;5058926;28;20178;-61
2023/11/16 09:14:40;;;;;;;28.97;12.20;;;5.10;99.90;;;;;;5064498;28;20401;-61
2023/11/16 09:17:16;;;;;;;32.90;11.10;;;5.10;99.90;;;;;;5062691;28;20452;-62
2023/11/16 09:19:43;;;;;;;30.40;12.37;;;5.20;99.90;;;;;;5059459;28;20519;-61
2023/11/16 09:22:09;;;;;;;28.83;12.10;;;5.20;99.90;;;;;;5058079;28;20432;-62
2023/11/16 09:24:37;;;;;;;30.70;14.10;;;5.20;99.90;;;;;;5064192;28;20943;-62
2023/11/16 09:27:04;;;;;;;38.73;13.67;;;5.20;99.90;;;;;;5067605;28;20466;-61
2023/11/16 09:29:30;;;;;;;30.13;12.00;;;5.30;99.90;;;;;;5062954;28;20425;-61
2023/11/16 09:31:56;;;;;;;30.57;12.00;;;5.30;99.90;;;;;;5063463;28;20431;-61
2023/11/16 09:34:22;;;;;;;27.80;11.60;;;5.30;99.90;;;;;;5067967;28;20803;-62
2023/11/16 09:36:50;;;;;;;17.10;9.63;;;5.40;99.90;;;;;;5063142;28;20645;-60
2023/11/16 09:39:16;;;;;;;15.97;9.23;;;5.30;99.90;;;;;;5062929;28;20436;-61
2023/11/16 09:41:49;;;;;;;20.50;9.77;;;5.30;99.90;;;;;;5061769;28;20515;-61
2023/11/16 09:44:18;;;;;;;16.60;9.10;;;5.30;99.90;;;;;;5059568;28;20492;-61
2023/11/16 09:46:46;;;;;;;18.90;9.40;;;5.40;99.90;;;;;;5061517;28;20460;-61
2023/11/16 09:49:16;;;;;;;23.30;10.13;;;5.40;99.90;;;;;;5061148;28;20978;-61
2023/11/16 09:51:43;;;;;;;18.00;10.33;;;5.40;99.90;;;;;;5061982;28;20419;-62
2023/11/16 09:54:10;;;;;;;18.87;9.53;;;5.50;99.90;;;;;;5057341;28;20422;-61
2023/11/16 09:56:40;;;;;;;15.60;8.60;;;5.50;99.90;;;;;;5061779;28;20502;-61
2023/11/16 09:59:13;;;;;;;19.13;8.67;;;5.60;99.90;;;;;;5064633;28;20421;-62
2023/11/16 10:01:46;;;;;;;19.47;9.17;;;5.70;99.90;;;;;;5058546;28;20421;-61
2023/11/16 10:04:14;;;;;;;14.20;8.73;;;5.70;99.90;;;;;;5063579;28;20437;-62
2023/11/16 10:06:46;;;;;;;16.63;7.80;;;5.70;99.90;;;;;;5054282;28;20464;-61
2023/11/16 10:09:14;;;;;;;13.57;7.60;;;5.70;99.90;;;;;;5058658;28;20432;-61
2023/11/16 10:11:43;;;;;;;16.30;7.10;;;5.70;99.90;;;;;;5069608;28;20786;-63
2023/11/16 10:14:09;;;;;;;13.97;7.50;;;5.70;99.90;;;;;;5073794;28;20408;-61
2023/11/16 10:16:34;;;;;;;12.30;7.00;;;5.70;99.90;;;;;;5068091;28;20858;-61
2023/11/16 10:19:06;;;;;;;10.57;7.27;;;5.70;99.90;;;;;;5068097;28;20456;-61
2023/11/16 10:21:34;;;;;;;13.77;6.70;;;5.80;99.90;;;;;;5072956;28;20184;-62
2023/11/16 10:24:08;;;;;;;18.30;7.80;;;5.80;99.90;;;;;;5067107;28;20433;-61
2023/11/16 10:26:35;;;;;;;14.60;8.30;;;5.80;99.90;;;;;;5067282;28;20451;-62
2023/11/16 10:29:01;;;;;;;16.37;8.07;;;5.80;99.90;;;;;;5067179;28;20605;-61
2023/11/16 10:31:34;;;;;;;18.67;9.03;;;5.90;99.90;;;;;;5072606;28;20409;-61
2023/11/16 10:34:03;;;;;;;10.47;6.90;;;6.00;99.90;;;;;;5071307;28;20409;-61
2023/11/16 10:36:30;;;;;;;7.40;4.90;;;6.10;99.90;;;;;;5066064;28;20463;-61
2023/11/16 10:38:58;;;;;;;8.93;4.87;;;6.10;99.90;;;;;;5070681;28;20451;-61
2023/11/16 10:41:24;;;;;;;7.90;3.90;;;6.20;99.90;;;;;;5073130;28;20424;-61
2023/11/16 10:43:56;;;;;;;5.63;3.10;;;6.30;99.90;;;;;;5069724;28;20409;-60
2023/11/16 10:46:25;;;;;;;13.90;4.23;;;6.40;99.90;;;;;;5068837;28;20491;-60
2023/11/16 10:48:51;;;;;;;3.83;2.90;;;6.40;99.90;;;;;;5065083;28;20520;-60
2023/11/16 10:51:21;;;;;;;4.93;3.50;;;6.40;99.90;;;;;;5069621;28;20876;-62
2023/11/16 10:53:52;;;;;;;5.57;3.80;;;6.50;99.90;;;;;;5067637;28;20606;-61
2023/11/16 10:56:18;;;;;;;7.00;3.27;;;6.50;99.90;;;;;;5072006;28;20435;-61
2023/11/16 10:58:47;;;;;;;4.87;3.00;;;6.50;99.90;;;;;;5072513;28;20436;-61
2023/11/16 11:01:17;;;;;;;9.47;3.17;;;6.50;99.90;;;;;;5066271;28;20444;-62
2023/11/16 11:03:45;;;;;;;6.23;3.20;;;6.50;99.90;;;;;;5068232;28;20974;-61
2023/11/16 11:06:23;;;;;;;8.77;3.87;;;6.60;99.90;;;;;;5071913;28;20496;-61
2023/11/16 11:08:53;;;;;;;8.97;4.50;;;6.60;99.90;;;;;;5062463;28;20447;-60
2023/11/16 11:11:26;;;;;;;5.00;2.87;;;6.70;99.90;;;;;;5073719;28;20443;-61
2023/11/16 11:13:57;;;;;;;7.53;3.20;;;6.70;99.90;;;;;;5071660;28;20416;-61
2023/11/16 11:16:26;;;;;;;7.10;3.17;;;6.70;99.90;;;;;;5069047;28;20447;-61
2023/11/16 11:18:52;;;;;;;3.63;2.70;;;6.80;99.90;;;;;;5071658;28;20436;-62
2023/11/16 11:21:22;;;;;;;7.30;3.40;;;6.80;99.90;;;;;;5065415;28;20945;-62
2023/11/16 11:24:17;;;;;;;6.67;3.13;;;6.90;99.90;;;;;;5065709;28;20175;-61
2023/11/16 11:26:48;;;;;;;7.00;3.00;;;7.00;99.90;;;;;;5043608;28;20457;-60
2023/11/16 11:29:14;;;;;;;5.90;3.20;;;7.10;99.90;;;;;;5065449;28;21024;-63
2023/11/16 11:32:06;;;;;;;6.47;3.30;;;7.20;99.90;;;;;;5069450;28;20516;-61
2023/11/16 11:34:34;;;;;;;5.20;2.90;;;7.50;99.90;;;;;;5066380;28;20436;-61
2023/11/16 11:37:01;;;;;;;7.20;3.57;;;7.80;99.90;;;;;;5064494;28;20425;-62
2023/11/16 11:39:38;;;;;;;5.30;2.93;;;8.00;99.90;;;;;;5067553;28;20581;-62
2023/11/16 11:42:04;;;;;;;8.17;2.83;;;8.20;99.90;;;;;;5063444;28;20499;-61
2023/11/16 11:44:30;;;;;;;7.47;2.63;;;8.20;99.90;;;;;;5067825;28;20657;-61
2023/11/16 11:46:56;;;;;;;5.87;2.70;;;8.20;99.90;;;;;;5065648;28;20551;-62
2023/11/16 11:49:24;;;;;;;2.33;2.13;;;8.20;99.90;;;;;;5066075;28;20166;-62
2023/11/16 11:51:51;;;;;;;7.67;2.97;;;8.20;99.90;;;;;;5067704;28;20939;-60
2023/11/16 11:54:16;;;;;;;11.17;2.47;;;8.20;99.90;;;;;;5058655;28;21200;-60
2023/11/16 11:56:46;;;;;;;4.40;2.10;;;8.00;99.90;;;;;;5067798;28;20531;-60
2023/11/16 11:59:13;;;;;;;6.97;2.50;;;8.00;99.90;;;;;;5066663;28;20175;-62
2023/11/16 12:01:39;;;;;;;5.00;3.13;;;7.90;99.90;;;;;;5061883;28;20447;-61
2023/11/16 12:04:07;;;;;;;4.63;2.67;;;7.80;99.90;;;;;;5059808;28;20413;-61
2023/11/16 12:06:33;;;;;;;7.60;3.03;;;7.80;99.90;;;;;;5059827;28;20488;-61
2023/11/16 12:08:58;;;;;;;8.90;2.67;;;7.70;99.90;;;;;;5063402;28;20483;-61
2023/11/16 12:11:26;;;;;;;4.53;2.30;;;7.60;99.90;;;;;;5060819;28;20225;-61
2023/11/16 12:13:55;;;;;;;5.30;3.00;;;7.60;99.90;;;;;;5068060;28;20198;-61
2023/11/16 12:16:25;;;;;;;8.50;2.97;;;7.50;99.90;;;;;;5065520;28;20502;-62
2023/11/16 12:18:54;;;;;;;4.33;2.90;;;7.50;99.90;;;;;;5064775;28;22297;-61
2023/11/16 12:21:22;;;;;;;8.00;3.43;;;7.50;99.90;;;;;;5067085;28;20834;-62
2023/11/16 12:23:57;;;;;;;11.03;3.20;;;7.40;99.90;;;;;;5062845;28;20447;-61
2023/11/16 12:26:27;;;;;;;8.33;2.67;;;7.40;99.90;;;;;;5057730;28;20489;-61
2023/11/16 12:28:54;;;;;;;8.63;2.70;;;7.40;99.90;;;;;;5056800;28;20457;-62
2023/11/16 12:31:21;;;;;;;5.43;2.47;;;7.30;99.90;;;;;;5061583;28;20439;-59
2023/11/16 12:33:50;;;;;;;5.57;2.53;;;7.30;99.90;;;;;;5064148;28;21092;-61
2023/11/16 12:36:24;;;;;;;5.50;2.53;;;7.30;99.90;;;;;;5064178;28;20418;-61
2023/11/16 12:38:52;;;;;;;7.07;2.00;;;7.20;99.90;;;;;;5060532;28;20444;-61
2023/11/16 12:41:19;;;;;;;6.57;2.60;;;7.20;99.90;;;;;;5065853;28;21167;-60
2023/11/16 12:43:45;;;;;;;6.60;2.70;;;7.20;99.90;;;;;;5063930;28;20451;-61
2023/11/16 12:46:11;;;;;;;7.27;2.60;;;7.10;99.90;;;;;;5062357;28;20468;-61
2023/11/16 12:48:38;;;;;;;8.47;3.03;;;7.20;99.90;;;;;;5063893;28;20507;-61
2023/11/16 12:51:06;;;;;;;6.47;2.70;;;7.10;99.90;;;;;;5064874;28;20500;-61
2023/11/16 12:53:33;;;;;;;7.30;3.13;;;7.10;99.90;;;;;;5063398;28;20429;-61